sensor_id;sensor_type;location;lat;lon;timestamp;temperature;humidity
27741;DHT22;15134;48.768;9.184;2023-04-25T00:01:11;10.50;99.90
27741;DHT22;15134;48.768;9.184;2023-04-25T00:03:38;10.50;99.90
27741;DHT22;15134;48.768;9.184;2023-04-25T00:06:04;10.50;99.90
27741;DHT22;15134;48.768;9.184;2023-04-25T00:08:30;10.50;99.90
27741;DHT22;15134;48.768;9.184;2023-04-25T00:10:57;10.50;99.90
27741;DHT22;15134;48.768;9.184;2023-04-25T00:13:23;10.50;99.90
27741;DHT22;15134;48.768;9.184;2023-04-25T00:15:48;10.50;99.90
27741;DHT22;15134;48.768;9.184;2023-04-25T00:18:15;10.50;99.90
27741;DHT22;15134;48.768;9.184;2023-04-25T00:20:40;10.50;99.90
27741;DHT22;15134;48.768;9.184;2023-04-25T00:23:15;10.50;99.90
27741;DHT22;15134;48.768;9.184;2023-04-25T00:25:47;10.40;99.90
27741;DHT22;15134;48.768;9.184;2023-04-25T00:28:13;10.40;99.90
27741;DHT22;15134;48.768;9.184;2023-04-25T00:30:39;10.40;99.90
27741;DHT22;15134;48.768;9.184;2023-04-25T00:33:06;10.40;99.90
27741;DHT22;15134;48.768;9.184;2023-04-25T00:35:32;10.40;99.90
27741;DHT22;15134;48.768;9.184;2023-04-25T00:37:58;10.30;99.90
27741;DHT22;15134;48.768;9.184;2023-04-25T00:40:24;10.30;99.90
27741;DHT22;15134;48.768;9.184;2023-04-25T00:42:51;10.30;99.90
27741;DHT22;15134;48.768;9.184;2023-04-25T00:45:18;10.30;99.90
27741;DHT22;15134;48.768;9.184;2023-04-25T00:47:44;10.30;99.90
27741;DHT22;15134;48.768;9.184;2023-04-25T00:50:11;10.30;99.90
27741;DHT22;15134;48.768;9.184;2023-04-25T00:52:41;10.40;99.90
27741;DHT22;15134;48.768;9.184;2023-04-25T00:55:08;10.30;99.90
27741;DHT22;15134;48.768;9.184;2023-04-25T00:57:35;10.20;99.90
27741;DHT22;15134;48.768;9.184;2023-04-25T01:00:02;10.10;99.90
27741;DHT22;15134;48.768;9.184;2023-04-25T01:02:29;10.10;99.90
27741;DHT22;15134;48.768;9.184;2023-04-25T01:04:55;10.10;99.90
27741;DHT22;15134;48.768;9.184;2023-04-25T01:07:21;10.10;99.90
27741;DHT22;15134;48.768;9.184;2023-04-25T01:09:47;10.20;99.90
27741;DHT22;15134;48.768;9.184;2023-04-25T01:12:13;10.20;99.90
27741;DHT22;15134;48.768;9.184;2023-04-25T01:14:40;10.10;99.90
27741;DHT22;15134;48.768;9.184;2023-04-25T01:17:06;10.10;99.90
27741;DHT22;15134;48.768;9.184;2023-04-25T01:19:33;10.10;99.90
27741;DHT22;15134;48.768;9.184;2023-04-25T01:21:59;10.10;99.90
27741;DHT22;15134;48.768;9.184;2023-04-25T01:24:26;10.10;99.90
27741;DHT22;15134;48.768;9.184;2023-04-25T01:26:52;10.10;99.90
27741;DHT22;15134;48.768;9.184;2023-04-25T01:29:23;10.20;99.90
27741;DHT22;15134;48.768;9.184;2023-04-25T01:31:51;10.20;99.90
27741;DHT22;15134;48.768;9.184;2023-04-25T01:34:16;10.20;99.90
27741;DHT22;15134;48.768;9.184;2023-04-25T01:36:42;10.30;99.90
27741;DHT22;15134;48.768;9.184;2023-04-25T01:39:09;10.30;99.90
27741;DHT22;15134;48.768;9.184;2023-04-25T01:41:35;10.40;99.90
27741;DHT22;15134;48.768;9.184;2023-04-25T01:44:02;10.40;99.90
27741;DHT22;15134;48.768;9.184;2023-04-25T01:46:28;10.40;99.90
27741;DHT22;15134;48.768;9.184;2023-04-25T01:48:54;10.30;99.90
27741;DHT22;15134;48.768;9.184;2023-04-25T01:51:20;10.20;99.90
27741;DHT22;15134;48.768;9.184;2023-04-25T01:53:48;10.20;99.90
27741;DHT22;15134;48.768;9.184;2023-04-25T01:56:14;10.20;99.90
27741;DHT22;15134;48.768;9.184;2023-04-25T01:58:40;10.20;99.90
27741;DHT22;15134;48.768;9.184;2023-04-25T02:01:30;10.20;99.90
27741;DHT22;15134;48.768;9.184;2023-04-25T02:04:14;10.30;99.90
27741;DHT22;15134;48.768;9.184;2023-04-25T02:06:41;10.30;99.90
27741;DHT22;15134;48.768;9.184;2023-04-25T02:09:07;10.30;99.90
27741;DHT22;15134;48.768;9.184;2023-04-25T02:11:33;10.20;99.90
27741;DHT22;15134;48.768;9.184;2023-04-25T02:14:18;10.20;99.90
27741;DHT22;15134;48.768;9.184;2023-04-25T02:17:02;10.20;99.90
27741;DHT22;15134;48.768;9.184;2023-04-25T02:19:30;10.20;99.90
27741;DHT22;15134;48.768;9.184;2023-04-25T02:21:55;10.20;99.90
27741;DHT22;15134;48.768;9.184;2023-04-25T02:24:22;10.20;99.90
27741;DHT22;15134;48.768;9.184;2023-04-25T02:26:48;10.10;99.90
27741;DHT22;15134;48.768;9.184;2023-04-25T02:29:15;10.10;99.90
27741;DHT22;15134;48.768;9.184;2023-04-25T02:31:41;10.10;99.90
27741;DHT22;15134;48.768;9.184;2023-04-25T02:34:08;10.00;99.90
27741;DHT22;15134;48.768;9.184;2023-04-25T02:36:38;10.00;99.90
27741;DHT22;15134;48.768;9.184;2023-04-25T02:39:03;9.90;99.90
27741;DHT22;15134;48.768;9.184;2023-04-25T02:41:29;9.90;99.90
27741;DHT22;15134;48.768;9.184;2023-04-25T02:43:55;9.90;99.90
27741;DHT22;15134;48.768;9.184;2023-04-25T02:46:20;9.90;99.90
27741;DHT22;15134;48.768;9.184;2023-04-25T02:48:46;9.80;99.90
27741;DHT22;15134;48.768;9.184;2023-04-25T02:51:12;9.80;99.90
27741;DHT22;15134;48.768;9.184;2023-04-25T02:53:38;9.80;99.90
27741;DHT22;15134;48.768;9.184;2023-04-25T02:56:06;9.80;99.90
27741;DHT22;15134;48.768;9.184;2023-04-25T02:58:32;9.80;99.90
27741;DHT22;15134;48.768;9.184;2023-04-25T03:00:57;9.90;99.90
27741;DHT22;15134;48.768;9.184;2023-04-25T03:03:23;9.90;99.90
27741;DHT22;15134;48.768;9.184;2023-04-25T03:05:50;9.90;99.90
27741;DHT22;15134;48.768;9.184;2023-04-25T03:08:20;9.90;99.90
27741;DHT22;15134;48.768;9.184;2023-04-25T03:10:46;9.90;99.90
27741;DHT22;15134;48.768;9.184;2023-04-25T03:13:14;9.90;99.90
27741;DHT22;15134;48.768;9.184;2023-04-25T03:15:42;9.90;99.90
27741;DHT22;15134;48.768;9.184;2023-04-25T03:18:07;9.90;99.90
27741;DHT22;15134;48.768;9.184;2023-04-25T03:20:33;9.90;99.90
27741;DHT22;15134;48.768;9.184;2023-04-25T03:22:59;9.90;99.90
27741;DHT22;15134;48.768;9.184;2023-04-25T03:25:26;9.90;99.90
27741;DHT22;15134;48.768;9.184;2023-04-25T03:27:52;9.90;99.90
27741;DHT22;15134;48.768;9.184;2023-04-25T03:30:18;9.90;99.90
27741;DHT22;15134;48.768;9.184;2023-04-25T03:32:44;9.90;99.90
27741;DHT22;15134;48.768;9.184;2023-04-25T03:35:14;9.90;99.90
27741;DHT22;15134;48.768;9.184;2023-04-25T03:37:40;9.90;99.90
27741;DHT22;15134;48.768;9.184;2023-04-25T03:40:06;9.90;99.90
27741;DHT22;15134;48.768;9.184;2023-04-25T03:42:55;9.80;99.90
27741;DHT22;15134;48.768;9.184;2023-04-25T03:45:22;9.80;99.90
27741;DHT22;15134;48.768;9.184;2023-04-25T03:47:48;9.80;99.90
27741;DHT22;15134;48.768;9.184;2023-04-25T03:50:14;9.80;99.90
27741;DHT22;15134;48.768;9.184;2023-04-25T03:52:39;9.80;99.90
27741;DHT22;15134;48.768;9.184;2023-04-25T03:55:07;9.70;99.90
27741;DHT22;15134;48.768;9.184;2023-04-25T03:57:33;9.70;99.90
27741;DHT22;15134;48.768;9.184;2023-04-25T03:59:59;9.70;99.90
27741;DHT22;15134;48.768;9.184;2023-04-25T04:02:28;9.80;99.90
27741;DHT22;15134;48.768;9.184;2023-04-25T04:04:54;9.80;99.90
27741;DHT22;15134;48.768;9.184;2023-04-25T04:07:21;9.70;99.90
27741;DHT22;15134;48.768;9.184;2023-04-25T04:09:49;9.70;99.90
27741;DHT22;15134;48.768;9.184;2023-04-25T04:12:23;9.80;99.90
27741;DHT22;15134;48.768;9.184;2023-04-25T04:14:49;9.80;99.90
27741;DHT22;15134;48.768;9.184;2023-04-25T04:17:16;9.70;99.90
27741;DHT22;15134;48.768;9.184;2023-04-25T04:19:41;9.70;99.90
27741;DHT22;15134;48.768;9.184;2023-04-25T04:22:17;9.60;99.90
27741;DHT22;15134;48.768;9.184;2023-04-25T04:24:43;9.60;99.90
27741;DHT22;15134;48.768;9.184;2023-04-25T04:27:17;9.60;99.90
27741;DHT22;15134;48.768;9.184;2023-04-25T04:30:01;9.60;99.90
27741;DHT22;15134;48.768;9.184;2023-04-25T04:32:37;9.60;99.90
27741;DHT22;15134;48.768;9.184;2023-04-25T04:35:05;9.70;99.90
27741;DHT22;15134;48.768;9.184;2023-04-25T04:37:32;9.70;99.90
27741;DHT22;15134;48.768;9.184;2023-04-25T04:39:59;9.70;99.90
27741;DHT22;15134;48.768;9.184;2023-04-25T04:42:39;9.70;99.90
27741;DHT22;15134;48.768;9.184;2023-04-25T04:45:25;9.70;99.90
27741;DHT22;15134;48.768;9.184;2023-04-25T04:48:06;9.80;99.90
27741;DHT22;15134;48.768;9.184;2023-04-25T04:51:08;9.80;99.90
27741;DHT22;15134;48.768;9.184;2023-04-25T04:53:52;9.90;99.90
27741;DHT22;15134;48.768;9.184;2023-04-25T04:56:30;9.90;99.90
27741;DHT22;15134;48.768;9.184;2023-04-25T04:59:15;9.90;99.90
27741;DHT22;15134;48.768;9.184;2023-04-25T05:01:49;9.90;99.90
27741;DHT22;15134;48.768;9.184;2023-04-25T05:04:40;9.90;99.90
27741;DHT22;15134;48.768;9.184;2023-04-25T05:07:28;9.90;99.90
27741;DHT22;15134;48.768;9.184;2023-04-25T05:10:03;9.80;99.90
27741;DHT22;15134;48.768;9.184;2023-04-25T05:12:43;9.80;99.90
27741;DHT22;15134;48.768;9.184;2023-04-25T05:15:40;9.90;99.90
27741;DHT22;15134;48.768;9.184;2023-04-25T05:18:29;9.90;99.90
27741;DHT22;15134;48.768;9.184;2023-04-25T05:21:15;9.90;99.90
27741;DHT22;15134;48.768;9.184;2023-04-25T05:24:02;10.00;99.90
27741;DHT22;15134;48.768;9.184;2023-04-25T05:26:47;10.10;99.90
27741;DHT22;15134;48.768;9.184;2023-04-25T05:29:42;10.10;99.90
27741;DHT22;15134;48.768;9.184;2023-04-25T05:32:21;10.10;99.90
27741;DHT22;15134;48.768;9.184;2023-04-25T05:34:53;10.20;99.90
27741;DHT22;15134;48.768;9.184;2023-04-25T05:37:23;10.20;99.90
27741;DHT22;15134;48.768;9.184;2023-04-25T05:39:54;10.30;99.90
27741;DHT22;15134;48.768;9.184;2023-04-25T05:42:44;10.40;99.90
27741;DHT22;15134;48.768;9.184;2023-04-25T05:45:31;10.40;99.90
27741;DHT22;15134;48.768;9.184;2023-04-25T05:47:56;10.40;99.90
27741;DHT22;15134;48.768;9.184;2023-04-25T05:50:54;10.50;99.90
27741;DHT22;15134;48.768;9.184;2023-04-25T05:53:36;10.50;99.90
27741;DHT22;15134;48.768;9.184;2023-04-25T05:56:02;10.50;99.90
27741;DHT22;15134;48.768;9.184;2023-04-25T05:58:30;10.40;99.90
27741;DHT22;15134;48.768;9.184;2023-04-25T06:00:57;10.30;99.90
27741;DHT22;15134;48.768;9.184;2023-04-25T06:03:23;10.30;99.90
27741;DHT22;15134;48.768;9.184;2023-04-25T06:05:49;10.30;99.90
27741;DHT22;15134;48.768;9.184;2023-04-25T06:08:16;10.30;99.90
27741;DHT22;15134;48.768;9.184;2023-04-25T06:10:42;10.20;99.90
27741;DHT22;15134;48.768;9.184;2023-04-25T06:13:08;10.20;99.90
27741;DHT22;15134;48.768;9.184;2023-04-25T06:15:35;10.20;99.90
27741;DHT22;15134;48.768;9.184;2023-04-25T06:18:01;10.20;99.90
27741;DHT22;15134;48.768;9.184;2023-04-25T06:20:28;10.20;99.90
27741;DHT22;15134;48.768;9.184;2023-04-25T06:22:56;10.30;99.90
27741;DHT22;15134;48.768;9.184;2023-04-25T06:25:35;10.30;99.90
27741;DHT22;15134;48.768;9.184;2023-04-25T06:28:01;10.40;99.90
27741;DHT22;15134;48.768;9.184;2023-04-25T06:30:27;10.40;99.90
27741;DHT22;15134;48.768;9.184;2023-04-25T06:32:58;10.50;99.90
27741;DHT22;15134;48.768;9.184;2023-04-25T06:35:24;10.70;99.90
27741;DHT22;15134;48.768;9.184;2023-04-25T06:37:50;10.80;99.90
27741;DHT22;15134;48.768;9.184;2023-04-25T06:40:19;10.80;99.90
27741;DHT22;15134;48.768;9.184;2023-04-25T06:42:46;10.80;99.90
27741;DHT22;15134;48.768;9.184;2023-04-25T06:45:30;10.70;99.90
27741;DHT22;15134;48.768;9.184;2023-04-25T06:47:57;10.70;99.90
27741;DHT22;15134;48.768;9.184;2023-04-25T06:50:23;10.80;99.90
27741;DHT22;15134;48.768;9.184;2023-04-25T06:52:49;10.80;99.90
27741;DHT22;15134;48.768;9.184;2023-04-25T06:55:14;10.80;99.90
27741;DHT22;15134;48.768;9.184;2023-04-25T06:58:09;10.80;99.90
27741;DHT22;15134;48.768;9.184;2023-04-25T07:00:51;10.90;99.90
27741;DHT22;15134;48.768;9.184;2023-04-25T07:03:20;10.90;99.90
27741;DHT22;15134;48.768;9.184;2023-04-25T07:05:46;10.80;99.90
27741;DHT22;15134;48.768;9.184;2023-04-25T07:08:12;10.80;99.90
27741;DHT22;15134;48.768;9.184;2023-04-25T07:10:37;10.80;99.90
27741;DHT22;15134;48.768;9.184;2023-04-25T07:13:04;10.80;99.90
27741;DHT22;15134;48.768;9.184;2023-04-25T07:15:30;10.70;99.90
27741;DHT22;15134;48.768;9.184;2023-04-25T07:17:57;10.70;99.90
27741;DHT22;15134;48.768;9.184;2023-04-25T07:20:22;10.70;99.90
27741;DHT22;15134;48.768;9.184;2023-04-25T07:22:48;10.70;99.90
27741;DHT22;15134;48.768;9.184;2023-04-25T07:25:15;10.70;99.90
27741;DHT22;15134;48.768;9.184;2023-04-25T07:27:41;10.70;99.90
27741;DHT22;15134;48.768;9.184;2023-04-25T07:30:16;10.70;99.90
27741;DHT22;15134;48.768;9.184;2023-04-25T07:32:42;10.70;99.90
27741;DHT22;15134;48.768;9.184;2023-04-25T07:35:10;10.70;99.90
27741;DHT22;15134;48.768;9.184;2023-04-25T07:37:37;10.70;99.90
27741;DHT22;15134;48.768;9.184;2023-04-25T07:40:09;10.70;99.90
27741;DHT22;15134;48.768;9.184;2023-04-25T07:42:41;10.70;99.90
27741;DHT22;15134;48.768;9.184;2023-04-25T07:45:08;10.70;99.90
27741;DHT22;15134;48.768;9.184;2023-04-25T07:47:35;10.70;99.90
27741;DHT22;15134;48.768;9.184;2023-04-25T07:50:02;10.70;99.90
27741;DHT22;15134;48.768;9.184;2023-04-25T07:52:30;10.70;99.90
27741;DHT22;15134;48.768;9.184;2023-04-25T07:55:03;10.70;99.90
27741;DHT22;15134;48.768;9.184;2023-04-25T07:57:40;10.70;99.90
27741;DHT22;15134;48.768;9.184;2023-04-25T08:00:07;10.70;99.90
27741;DHT22;15134;48.768;9.184;2023-04-25T08:02:39;10.70;99.90
27741;DHT22;15134;48.768;9.184;2023-04-25T08:05:08;10.60;99.90
27741;DHT22;15134;48.768;9.184;2023-04-25T08:07:38;10.60;99.90
27741;DHT22;15134;48.768;9.184;2023-04-25T08:10:06;10.60;99.90
27741;DHT22;15134;48.768;9.184;2023-04-25T08:12:33;10.60;99.90
27741;DHT22;15134;48.768;9.184;2023-04-25T08:14:59;10.50;99.90
27741;DHT22;15134;48.768;9.184;2023-04-25T08:17:28;10.50;99.90
27741;DHT22;15134;48.768;9.184;2023-04-25T08:19:54;10.50;99.90
27741;DHT22;15134;48.768;9.184;2023-04-25T08:22:25;10.50;99.90
27741;DHT22;15134;48.768;9.184;2023-04-25T08:24:59;10.50;99.90
27741;DHT22;15134;48.768;9.184;2023-04-25T08:27:26;10.50;99.90
27741;DHT22;15134;48.768;9.184;2023-04-25T08:29:52;10.50;99.90
27741;DHT22;15134;48.768;9.184;2023-04-25T08:32:18;10.50;99.90
27741;DHT22;15134;48.768;9.184;2023-04-25T08:34:59;10.50;99.90
27741;DHT22;15134;48.768;9.184;2023-04-25T08:37:25;10.50;99.90
27741;DHT22;15134;48.768;9.184;2023-04-25T08:40:01;10.40;99.90
27741;DHT22;15134;48.768;9.184;2023-04-25T08:42:45;10.50;99.90
27741;DHT22;15134;48.768;9.184;2023-04-25T08:45:13;10.50;99.90
27741;DHT22;15134;48.768;9.184;2023-04-25T08:47:41;10.50;99.90
27741;DHT22;15134;48.768;9.184;2023-04-25T08:50:08;10.50;99.90
27741;DHT22;15134;48.768;9.184;2023-04-25T08:52:43;10.50;99.90
27741;DHT22;15134;48.768;9.184;2023-04-25T08:55:12;10.50;99.90
27741;DHT22;15134;48.768;9.184;2023-04-25T08:57:40;10.50;99.90
27741;DHT22;15134;48.768;9.184;2023-04-25T09:00:10;10.40;99.90
27741;DHT22;15134;48.768;9.184;2023-04-25T09:02:42;10.40;99.90
27741;DHT22;15134;48.768;9.184;2023-04-25T09:05:09;10.30;99.90
27741;DHT22;15134;48.768;9.184;2023-04-25T09:07:37;10.20;99.90
27741;DHT22;15134;48.768;9.184;2023-04-25T09:10:04;10.20;99.90
27741;DHT22;15134;48.768;9.184;2023-04-25T09:12:34;10.20;99.90
27741;DHT22;15134;48.768;9.184;2023-04-25T09:15:11;10.30;99.90
27741;DHT22;15134;48.768;9.184;2023-04-25T09:17:58;10.30;99.90
27741;DHT22;15134;48.768;9.184;2023-04-25T09:20:28;10.30;99.90
27741;DHT22;15134;48.768;9.184;2023-04-25T09:23:02;10.30;99.90
27741;DHT22;15134;48.768;9.184;2023-04-25T09:25:35;10.30;99.90
27741;DHT22;15134;48.768;9.184;2023-04-25T09:28:06;10.40;99.90
27741;DHT22;15134;48.768;9.184;2023-04-25T09:30:34;10.40;99.90
27741;DHT22;15134;48.768;9.184;2023-04-25T09:33:42;10.40;99.90
27741;DHT22;15134;48.768;9.184;2023-04-25T09:36:09;10.30;99.90
27741;DHT22;15134;48.768;9.184;2023-04-25T09:39:02;10.30;99.90
27741;DHT22;15134;48.768;9.184;2023-04-25T09:41:41;10.20;99.90
27741;DHT22;15134;48.768;9.184;2023-04-25T09:44:07;10.20;99.90
27741;DHT22;15134;48.768;9.184;2023-04-25T09:46:39;10.10;99.90
27741;DHT22;15134;48.768;9.184;2023-04-25T09:49:15;10.10;99.90
27741;DHT22;15134;48.768;9.184;2023-04-25T09:52:30;10.00;99.90
27741;DHT22;15134;48.768;9.184;2023-04-25T09:55:10;9.90;99.90
27741;DHT22;15134;48.768;9.184;2023-04-25T09:57:37;9.90;99.90
27741;DHT22;15134;48.768;9.184;2023-04-25T10:00:07;9.80;99.90
27741;DHT22;15134;48.768;9.184;2023-04-25T10:02:42;9.80;99.90
27741;DHT22;15134;48.768;9.184;2023-04-25T10:05:18;9.80;99.90
27741;DHT22;15134;48.768;9.184;2023-04-25T10:07:44;9.80;99.90
27741;DHT22;15134;48.768;9.184;2023-04-25T10:10:15;9.80;99.90
27741;DHT22;15134;48.768;9.184;2023-04-25T10:12:41;9.80;99.90
27741;DHT22;15134;48.768;9.184;2023-04-25T10:15:09;9.80;99.90
27741;DHT22;15134;48.768;9.184;2023-04-25T10:17:36;9.70;99.90
27741;DHT22;15134;48.768;9.184;2023-04-25T10:20:03;9.60;99.90
27741;DHT22;15134;48.768;9.184;2023-04-25T10:22:38;9.60;99.90
27741;DHT22;15134;48.768;9.184;2023-04-25T10:25:05;9.60;99.90
27741;DHT22;15134;48.768;9.184;2023-04-25T10:27:31;9.60;99.90
27741;DHT22;15134;48.768;9.184;2023-04-25T10:32:31;9.30;99.90
27741;DHT22;15134;48.768;9.184;2023-04-25T10:34:58;9.40;99.90
27741;DHT22;15134;48.768;9.184;2023-04-25T10:37:35;9.40;99.90
27741;DHT22;15134;48.768;9.184;2023-04-25T10:40:08;9.50;99.90
27741;DHT22;15134;48.768;9.184;2023-04-25T10:42:35;9.70;99.90
27741;DHT22;15134;48.768;9.184;2023-04-25T10:45:07;9.70;99.90
27741;DHT22;15134;48.768;9.184;2023-04-25T10:47:36;9.60;99.90
27741;DHT22;15134;48.768;9.184;2023-04-25T10:50:09;9.60;99.90
27741;DHT22;15134;48.768;9.184;2023-04-25T10:52:35;9.70;99.90
27741;DHT22;15134;48.768;9.184;2023-04-25T10:55:03;9.70;99.90
27741;DHT22;15134;48.768;9.184;2023-04-25T10:57:45;9.70;99.90
27741;DHT22;15134;48.768;9.184;2023-04-25T11:00:15;9.60;99.90
27741;DHT22;15134;48.768;9.184;2023-04-25T11:02:51;9.40;99.90
27741;DHT22;15134;48.768;9.184;2023-04-25T11:05:34;9.40;99.90
27741;DHT22;15134;48.768;9.184;2023-04-25T11:08:01;9.50;99.90
27741;DHT22;15134;48.768;9.184;2023-04-25T11:10:30;9.50;99.90
27741;DHT22;15134;48.768;9.184;2023-04-25T11:12:57;9.40;99.90
27741;DHT22;15134;48.768;9.184;2023-04-25T11:15:23;9.30;99.90
27741;DHT22;15134;48.768;9.184;2023-04-25T11:17:52;9.20;99.90
27741;DHT22;15134;48.768;9.184;2023-04-25T11:20:18;9.40;99.90
27741;DHT22;15134;48.768;9.184;2023-04-25T11:22:45;9.50;99.90
27741;DHT22;15134;48.768;9.184;2023-04-25T11:25:12;9.70;99.90
27741;DHT22;15134;48.768;9.184;2023-04-25T11:27:51;9.80;99.90
27741;DHT22;15134;48.768;9.184;2023-04-25T11:30:18;9.90;99.90
27741;DHT22;15134;48.768;9.184;2023-04-25T11:32:44;9.80;99.90
27741;DHT22;15134;48.768;9.184;2023-04-25T11:35:11;9.90;99.90
27741;DHT22;15134;48.768;9.184;2023-04-25T11:37:42;10.00;99.90
27741;DHT22;15134;48.768;9.184;2023-04-25T11:40:09;10.20;99.90
27741;DHT22;15134;48.768;9.184;2023-04-25T11:42:53;10.40;99.90
27741;DHT22;15134;48.768;9.184;2023-04-25T11:45:19;10.60;99.90
27741;DHT22;15134;48.768;9.184;2023-04-25T11:47:45;10.70;99.90
27741;DHT22;15134;48.768;9.184;2023-04-25T11:50:11;10.80;99.90
27741;DHT22;15134;48.768;9.184;2023-04-25T11:52:46;10.90;99.90
27741;DHT22;15134;48.768;9.184;2023-04-25T11:55:19;11.00;99.90
27741;DHT22;15134;48.768;9.184;2023-04-25T11:57:48;11.10;99.90
27741;DHT22;15134;48.768;9.184;2023-04-25T12:00:21;11.10;99.90
27741;DHT22;15134;48.768;9.184;2023-04-25T12:02:51;11.00;99.90
27741;DHT22;15134;48.768;9.184;2023-04-25T12:05:17;11.10;99.90
27741;DHT22;15134;48.768;9.184;2023-04-25T12:07:43;11.00;99.90
27741;DHT22;15134;48.768;9.184;2023-04-25T12:10:14;11.00;99.90
27741;DHT22;15134;48.768;9.184;2023-04-25T12:12:45;11.00;99.90
27741;DHT22;15134;48.768;9.184;2023-04-25T12:15:22;11.20;99.90
27741;DHT22;15134;48.768;9.184;2023-04-25T12:17:50;11.30;99.90
27741;DHT22;15134;48.768;9.184;2023-04-25T12:20:19;11.30;99.90
27741;DHT22;15134;48.768;9.184;2023-04-25T12:22:47;11.30;99.90
27741;DHT22;15134;48.768;9.184;2023-04-25T12:25:44;11.40;99.90
27741;DHT22;15134;48.768;9.184;2023-04-25T12:28:11;11.30;99.90
27741;DHT22;15134;48.768;9.184;2023-04-25T12:33:36;11.20;99.90
27741;DHT22;15134;48.768;9.184;2023-04-25T12:36:04;11.10;99.90
27741;DHT22;15134;48.768;9.184;2023-04-25T12:38:39;11.10;99.90
27741;DHT22;15134;48.768;9.184;2023-04-25T12:41:05;11.00;99.90
27741;DHT22;15134;48.768;9.184;2023-04-25T12:43:31;11.10;99.90
27741;DHT22;15134;48.768;9.184;2023-04-25T12:45:57;11.20;99.90
27741;DHT22;15134;48.768;9.184;2023-04-25T12:48:23;11.20;99.90
27741;DHT22;15134;48.768;9.184;2023-04-25T12:50:50;11.30;99.90
27741;DHT22;15134;48.768;9.184;2023-04-25T12:53:21;11.40;99.90
27741;DHT22;15134;48.768;9.184;2023-04-25T12:55:47;11.50;99.90
27741;DHT22;15134;48.768;9.184;2023-04-25T12:58:14;11.70;99.90
27741;DHT22;15134;48.768;9.184;2023-04-25T13:00:40;11.90;99.90
27741;DHT22;15134;48.768;9.184;2023-04-25T13:03:06;12.10;99.90
27741;DHT22;15134;48.768;9.184;2023-04-25T13:05:32;12.30;99.90
27741;DHT22;15134;48.768;9.184;2023-04-25T13:07:57;12.20;99.90
27741;DHT22;15134;48.768;9.184;2023-04-25T13:10:24;12.20;99.90
27741;DHT22;15134;48.768;9.184;2023-04-25T13:12:50;12.20;99.90
27741;DHT22;15134;48.768;9.184;2023-04-25T13:15:16;12.20;99.90
27741;DHT22;15134;48.768;9.184;2023-04-25T13:17:42;12.20;99.90
27741;DHT22;15134;48.768;9.184;2023-04-25T13:20:09;12.20;99.90
27741;DHT22;15134;48.768;9.184;2023-04-25T13:22:37;12.20;99.90
27741;DHT22;15134;48.768;9.184;2023-04-25T13:25:03;12.10;99.90
27741;DHT22;15134;48.768;9.184;2023-04-25T13:27:29;12.20;99.90
27741;DHT22;15134;48.768;9.184;2023-04-25T13:29:58;12.20;99.90
27741;DHT22;15134;48.768;9.184;2023-04-25T13:32:24;11.90;99.90
27741;DHT22;15134;48.768;9.184;2023-04-25T13:34:51;11.70;99.90
27741;DHT22;15134;48.768;9.184;2023-04-25T13:37:17;11.60;99.90
27741;DHT22;15134;48.768;9.184;2023-04-25T13:39:42;11.50;99.90
27741;DHT22;15134;48.768;9.184;2023-04-25T13:42:08;11.60;99.90
27741;DHT22;15134;48.768;9.184;2023-04-25T13:44:34;11.70;99.90
27741;DHT22;15134;48.768;9.184;2023-04-25T13:46:59;11.80;99.90
27741;DHT22;15134;48.768;9.184;2023-04-25T13:49:26;11.90;99.90
27741;DHT22;15134;48.768;9.184;2023-04-25T13:51:52;11.90;99.90
27741;DHT22;15134;48.768;9.184;2023-04-25T13:54:18;11.90;99.90
27741;DHT22;15134;48.768;9.184;2023-04-25T13:56:43;11.60;99.90
27741;DHT22;15134;48.768;9.184;2023-04-25T13:59:09;11.40;99.90
27741;DHT22;15134;48.768;9.184;2023-04-25T14:01:35;11.30;99.90
27741;DHT22;15134;48.768;9.184;2023-04-25T14:04:02;11.30;99.90
27741;DHT22;15134;48.768;9.184;2023-04-25T14:06:29;11.60;99.90
27741;DHT22;15134;48.768;9.184;2023-04-25T14:08:56;11.90;99.90
27741;DHT22;15134;48.768;9.184;2023-04-25T14:11:22;12.00;99.90
27741;DHT22;15134;48.768;9.184;2023-04-25T14:13:47;12.00;99.90
27741;DHT22;15134;48.768;9.184;2023-04-25T14:16:15;12.00;99.90
27741;DHT22;15134;48.768;9.184;2023-04-25T14:18:41;12.00;99.90
27741;DHT22;15134;48.768;9.184;2023-04-25T14:21:07;12.20;99.90
27741;DHT22;15134;48.768;9.184;2023-04-25T14:23:32;12.40;99.90
27741;DHT22;15134;48.768;9.184;2023-04-25T14:25:58;12.50;99.90
27741;DHT22;15134;48.768;9.184;2023-04-25T14:28:24;12.50;99.90
27741;DHT22;15134;48.768;9.184;2023-04-25T14:30:49;12.40;99.90
27741;DHT22;15134;48.768;9.184;2023-04-25T14:33:15;12.30;99.90
27741;DHT22;15134;48.768;9.184;2023-04-25T14:35:41;12.30;99.90
27741;DHT22;15134;48.768;9.184;2023-04-25T14:38:07;12.30;99.90
27741;DHT22;15134;48.768;9.184;2023-04-25T14:40:33;12.40;99.90
27741;DHT22;15134;48.768;9.184;2023-04-25T14:42:59;12.30;99.90
27741;DHT22;15134;48.768;9.184;2023-04-25T14:45:25;12.30;99.90
27741;DHT22;15134;48.768;9.184;2023-04-25T14:47:51;12.20;99.90
27741;DHT22;15134;48.768;9.184;2023-04-25T14:50:17;12.00;99.90
27741;DHT22;15134;48.768;9.184;2023-04-25T14:52:42;11.90;99.90
27741;DHT22;15134;48.768;9.184;2023-04-25T14:55:09;11.90;99.90
27741;DHT22;15134;48.768;9.184;2023-04-25T14:57:35;11.80;99.90
27741;DHT22;15134;48.768;9.184;2023-04-25T15:00:02;11.90;99.90
27741;DHT22;15134;48.768;9.184;2023-04-25T15:02:30;11.80;99.90
27741;DHT22;15134;48.768;9.184;2023-04-25T15:04:56;11.70;99.90
27741;DHT22;15134;48.768;9.184;2023-04-25T15:07:22;11.80;99.90
27741;DHT22;15134;48.768;9.184;2023-04-25T15:09:48;12.00;99.90
27741;DHT22;15134;48.768;9.184;2023-04-25T15:12:14;12.10;99.90
27741;DHT22;15134;48.768;9.184;2023-04-25T15:14:40;12.20;99.90
27741;DHT22;15134;48.768;9.184;2023-04-25T15:17:06;12.10;99.90
27741;DHT22;15134;48.768;9.184;2023-04-25T15:19:32;12.00;99.90
27741;DHT22;15134;48.768;9.184;2023-04-25T15:21:58;12.00;99.90
27741;DHT22;15134;48.768;9.184;2023-04-25T15:24:26;12.00;99.90
27741;DHT22;15134;48.768;9.184;2023-04-25T15:26:52;11.80;99.90
27741;DHT22;15134;48.768;9.184;2023-04-25T15:29:18;11.60;99.90
27741;DHT22;15134;48.768;9.184;2023-04-25T15:31:45;11.50;99.90
27741;DHT22;15134;48.768;9.184;2023-04-25T15:34:11;11.60;99.90
27741;DHT22;15134;48.768;9.184;2023-04-25T15:36:38;11.60;99.90
27741;DHT22;15134;48.768;9.184;2023-04-25T15:39:04;11.50;99.90
27741;DHT22;15134;48.768;9.184;2023-04-25T15:41:30;11.50;99.90
27741;DHT22;15134;48.768;9.184;2023-04-25T15:43:55;11.40;99.90
27741;DHT22;15134;48.768;9.184;2023-04-25T15:46:21;11.30;99.90
27741;DHT22;15134;48.768;9.184;2023-04-25T15:48:48;11.20;99.90
27741;DHT22;15134;48.768;9.184;2023-04-25T15:51:14;11.20;99.90
27741;DHT22;15134;48.768;9.184;2023-04-25T15:53:42;11.20;99.90
27741;DHT22;15134;48.768;9.184;2023-04-25T15:56:07;11.30;99.90